Clearwater, KS

5:38 PM CDT on August 29, 2015 (GMT -0500)
Dove Haven | | Change Station
CLOSE
Current Station
Personal Weather Station
Location: Clearwater, KS
Elevation: 1394 ft
Nearby Weather Stations

Elev 1394 ft 37.56 °N, 97.52 °W | Updated 3 minutes ago

Overcast
Overcast
72.1 °F
Feels Like 74 °F
N
9.0
Wind Variable Wind from NNE
Gusts 11.0 mph

Today
High -- | Low -- °F
--% Chance of Precip.
Yesterday
High -- | Low -- °F
Precip. -- in
6:57 AM 8:03 PM
Full, 100% visible
Pressure 29.99 in
Visibility 10.0 miles
Clouds Mostly Cloudy 2500 ft
Heat Index 74 °F
Dew Point 63 °F
Humidity 74%
Rainfall 0.00 in
Snow Depth Not available.
UV 0.0 out of 12
Pollen 10.60 out of 12
Air Quality Not available.
Flu Activity Not available.
METAR KICT 292153Z 01010KT 10SM BKN025 22/16 A3003 RMK AO2 SLP156 T02220161
Pressure 29.99 in
Visibility 10.0 miles
Clouds Mostly Cloudy 2500 ft
Heat Index 74 °F
Dew Point 63 °F
Humidity 74%
Rainfall 0.00 in
Snow Depth Not available.
UV 0.0 out of 12
Pollen 10.60 out of 12
Air Quality Not available.
Flu Activity Not available.
METAR KICT 292153Z 01010KT 10SM BKN025 22/16 A3003 RMK AO2 SLP156 T02220161

10-Day Weather Forecast

×

Almanac

Astronomy

Aug. 29, 2015 Rise Set
Actual Time
Civil Twilight
Nautical Twilight
Astronomical Twilight
Moon
Length of Visible Light
Length of Day
Tomorrow will be .
, % of the Moon is Illuminated

Today's Extremes

State Highs State Lows

Community

WunderPhotos

Upload Photos

1,850,775 photos uploaded!

WunderBlogs® & News

Nearby

Air Quality

  Air Quality AQ Index Pollutant
Not available.

Snow Depth

Station Depth Elevation

Earthquake Activity

City Distance Mag. Time & Date
Minimum magnitude displayed is 2.5.

Coastal Water Temperatures

Place Temperature

Stations

Nearby Weather Stations

Station Location Temp. Windchill Dew Point Humidity Wind Precip. Elev Updated Type